Impacts METAR Board
IDs:

KAUS - Austin/Bergstrom Int, TX, US

Updated at: 0300 UTC 06 Dec 2019
Potential Impact None Slight Moderate High
Time 05/15Z 05/16Z 05/17Z 05/18Z 05/19Z 05/20Z 05/21Z 05/22Z 05/23Z 06/00Z 06/01Z 06/02Z 06/03Z
Temp56 57 62 66 71 71 73 74 72 64 66 62 60
Dewpt54 56 58 60 60 60 60 59 60 58 60 58 58
Altim30.05 30.07 30.06 30.03 29.99 29.96 29.94 29.93 29.94 29.94 29.95 29.97 29.98
VIS0.5 0.25 2 7 10 10 10 10 10 10 10 10 9
CIG3 1 5 8 18 22 250 250 250 250 -- 250 250
CoverOVCOVCOVCOVCOVCBKNBKNBKNBKNBKNSCTBKNBKN
FltCatLIFRLIFRIFRIFRMVFRMVFRVFRVFRVFRVFRVFRVFRVFR
WXBRBRBR--------------------
WDir16018020018019020018020019018000190
WSpd6 5 8 13 16 14 16 12 12 5 0 0 3
WGst-- -- -- -- 21 20 -- -- -- -- -- -- --
Raw hourly METARs
KAUS 051503Z 16006KT 1/2SM R17L/3500VP6000FT BR OVC003 13/12 A3005 RMK AO2 SFC VIS 2 T01330122
KAUS 051553Z 18005KT 1/4SM R17L/1800V4000FT BR OVC001 14/13 A3007 RMK AO2 SFC VIS 3/4 SLP182 TWRIC T01390133
KAUS 051656Z 20008KT 2SM BR OVC005 17/14 A3006 RMK AO2 SFC VIS 4 T01670144
KAUS 051757Z 18013KT 7SM OVC008 19/16 A3003 RMK AO2 T01890156
KAUS 051853Z 19016G21KT 10SM OVC018 22/16 A2999 RMK AO2 SLP153 T02170156
KAUS 051953Z 20014G20KT 10SM BKN022 BKN200 22/16 A2996 RMK AO2 SLP142 T02170156
KAUS 052053Z 18016KT 10SM FEW023 SCT200 BKN250 23/16 A2994 RMK AO2 SLP134 T02280156 56034
KAUS 052153Z 20012KT 10SM FEW023 SCT200 BKN250 23/15 A2993 RMK AO2 SLP132 T02330150
KAUS 052253Z 19012KT 10SM SCT200 BKN250 22/16 A2994 RMK AO2 SLP136 T02220156
KAUS 052353Z 18005KT 10SM SCT200 BKN250 18/14 A2994 RMK AO2 SLP138 T01780144 10239 20178 53002
KAUS 060053Z 00000KT 10SM FEW200 SCT250 19/16 A2995 RMK AO2 SLP139 T01890156
KAUS 060153Z 00000KT 10SM BKN250 17/14 A2997 RMK AO2 SLP146 T01670144
KAUS 060253Z 19003KT 9SM BKN250 16/14 A2998 RMK AO2 SLP152 T01560144 53014